Time;durP1;ratioP1;P1;durP2;ratioP2;P2;SDS_P1;SDS_P2;PMS_P1;PMS_P2;Temp;Humidity;BMP_temperature;BMP_pressure;BME280_temperature;BME280_humidity;BME280_pressure;Samples;Min_cycle;Max_cycle;Signal;HPM_P1;HPM_P2
2023/01/30 09:08:16;;;;;;;21.42;12.45;;;-0.20;79.30;;;-2.48;88.22;96297.38;5101778;27;20387;-50
2023/01/30 09:10:42;;;;;;;24.27;12.35;;;0.30;80.00;;;-2.16;85.44;96309.56;5079306;28;20517;-50
2023/01/30 09:13:09;;;;;;;21.98;12.05;;;1.20;78.50;;;-1.86;83.18;96325.47;5074967;28;20031;-46
2023/01/30 09:15:35;;;;;;;21.52;11.65;;;2.20;76.40;;;-1.65;81.44;96322.28;5063080;28;20107;-47
2023/01/30 09:18:01;;;;;;;20.98;11.32;;;3.10;74.10;;;-1.41;79.60;96310.88;5058801;28;20431;-49
2023/01/30 09:20:27;;;;;;;19.13;10.73;;;3.90;72.20;;;-1.06;78.97;96327.84;5059339;28;20036;-50
2023/01/30 09:23:00;;;;;;;16.67;10.55;;;4.60;70.70;;;-0.86;74.73;96314.31;5060780;28;20036;-49
2023/01/30 09:25:26;;;;;;;16.92;10.15;;;5.20;69.10;;;-0.65;74.82;96314.47;5042583;28;20039;-48
2023/01/30 09:27:52;;;;;;;16.73;10.13;;;5.80;67.90;;;-0.47;73.17;96314.13;5039828;28;20034;-52
2023/01/30 09:30:25;;;;;;;17.23;9.77;;;6.20;66.40;;;-0.40;73.25;96309.03;5060507;28;20103;-48
2023/01/30 09:32:51;;;;;;;17.40;10.48;;;6.60;64.40;;;-0.13;72.12;96326.75;5056065;28;20021;-53
2023/01/30 09:35:17;;;;;;;15.35;10.20;;;7.00;63.70;;;0.11;70.95;96330.09;5060350;28;20066;-51
2023/01/30 09:37:50;;;;;;;18.73;11.10;;;7.30;63.00;;;0.18;70.31;96344.09;5062177;28;20628;-49
2023/01/30 09:41:21;;;;;;;21.70;12.52;;;7.60;62.00;;;0.19;71.09;96345.75;5044961;28;20036;-54
2023/01/30 09:44:46;;;;;;;20.05;11.63;;;7.80;60.40;;;0.39;69.81;96340.75;5035578;28;20040;-50
2023/01/30 09:47:40;;;;;;;19.80;11.45;;;8.20;59.80;;;0.38;69.74;96347.81;5045516;28;20032;-52
2023/01/30 09:51:23;;;;;;;22.15;13.10;;;8.30;59.30;;;0.69;69.91;96344.97;5025794;28;20027;-51
2023/01/30 09:54:37;;;;;;;20.67;11.87;;;8.60;58.90;;;0.67;69.69;96339.09;5046204;28;20025;-49
2023/01/30 09:57:21;;;;;;;;;;;8.60;58.30;;;0.98;68.89;96339.84;5028617;28;20127;-54
2023/01/30 10:00:09;;;;;;;19.67;12.32;;;8.70;58.70;;;0.88;67.35;96342.78;5052406;28;19904;-55
2023/01/30 10:03:11;;;;;;;20.40;12.55;;;8.70;57.80;;;1.14;68.40;96326.47;5037145;28;20028;-50
2023/01/30 10:05:57;;;;;;;20.45;13.02;;;8.90;57.20;;;1.19;66.86;96331.16;5051504;28;20516;-53
2023/01/30 10:08:44;;;;;;;19.35;12.65;;;9.20;56.80;;;1.33;67.06;96312.72;5046989;28;20270;-53
2023/01/30 10:11:54;;;;;;;23.23;12.93;;;9.30;56.30;;;1.17;66.98;96325.31;5058440;28;20537;-53
2023/01/30 10:15:07;;;;;;;20.33;12.48;;;9.20;56.40;;;1.20;67.38;96344.09;5055121;28;20036;-52
2023/01/30 10:18:33;;;;;;;21.55;13.48;;;9.10;55.60;;;1.47;66.38;96353.03;5030273;28;20082;-53
2023/01/30 10:22:06;;;;;;;25.50;13.35;;;9.20;55.80;;;1.30;66.18;96336.72;4984506;28;20028;-51
2023/01/30 10:24:59;;;;;;;20.70;13.80;;;9.40;55.00;;;1.48;66.49;96324.97;5037106;28;20047;-52
2023/01/30 10:27:32;;;;;;;21.90;12.53;;;9.50;54.90;;;1.59;65.81;96333.13;5070960;28;20034;-54
2023/01/30 10:30:12;;;;;;;22.60;13.30;;;9.60;54.80;;;2.00;65.60;96332.44;5046007;28;20377;-51
2023/01/30 10:32:59;;;;;;;20.00;12.50;;;9.90;54.70;;;1.80;64.17;96319.16;5052536;28;20411;-57
2023/01/30 10:35:36;;;;;;;20.80;13.13;;;9.80;54.20;;;1.64;64.87;96322.06;5037116;28;20044;-57
2023/01/30 10:38:42;;;;;;;19.58;12.40;;;9.80;53.70;;;2.15;64.47;96337.59;5061858;28;20027;-56
2023/01/30 10:41:47;;;;;;;20.95;12.60;;;9.90;53.80;;;2.16;63.42;96341.81;5052384;28;20016;-58
2023/01/30 10:44:17;;;;;;;20.70;13.13;;;9.90;53.80;;;1.87;64.49;96339.41;5071911;28;20023;-58
2023/01/30 10:47:37;;;;;;;22.88;13.50;;;9.80;53.50;;;1.76;64.24;96340.75;5060559;28;20107;-58
2023/01/30 10:50:33;;;;;;;24.15;12.95;;;9.50;53.00;;;1.65;65.93;96315.00;5054181;28;20016;-55
2023/01/30 10:53:43;;;;;;;22.55;13.13;;;9.10;53.00;;;1.52;66.04;96287.63;5051501;28;20032;-54
2023/01/30 10:56:58;;;;;;;23.33;13.77;;;9.00;53.20;;;1.45;67.44;96264.97;5067830;28;20020;-56
2023/01/30 10:59:54;;;;;;;22.15;13.90;;;8.90;53.20;;;1.62;67.17;96242.66;5012289;28;20179;-57
2023/01/30 11:03:34;;;;;;;27.17;13.82;;;8.80;53.50;;;1.47;67.45;96252.44;5034777;28;20043;-55
2023/01/30 11:06:26;;;;;;;23.45;13.35;;;8.60;53.80;;;1.05;68.33;96239.19;5048681;28;20064;-52
2023/01/30 11:08:56;;;;;;;27.02;14.18;;;8.40;53.70;;;1.10;68.42;96264.88;5019492;28;20041;-52
2023/01/30 11:11:54;;;;;;;23.45;14.75;;;8.30;53.40;;;0.98;68.99;96251.44;5023370;28;20074;-52
2023/01/30 11:14:20;;;;;;;21.55;12.95;;;8.30;52.90;;;1.24;68.20;96242.19;5041167;28;20123;-53
2023/01/30 11:17:01;;;;;;;24.33;13.80;;;8.30;53.20;;;1.59;66.45;96238.59;5066627;28;20119;-54
2023/01/30 11:19:36;;;;;;;20.55;13.20;;;8.70;53.40;;;1.82;66.42;96233.09;5044186;28;20442;-53
2023/01/30 11:22:12;;;;;;;23.27;13.57;;;9.10;53.10;;;1.97;64.74;96226.88;5055231;28;20115;-53
2023/01/30 11:24:44;;;;;;;20.15;12.55;;;9.20;53.60;;;2.23;64.28;96215.72;5054628;28;20021;-55
2023/01/30 11:27:31;;;;;;;23.17;13.43;;;9.50;52.70;;;2.47;62.54;96207.25;5054026;28;20036;-54
2023/01/30 11:30:14;;;;;;;21.95;14.45;;;9.80;52.30;;;2.52;62.16;96183.00;5036243;28;20031;-52
2023/01/30 11:32:49;;;;;;;20.73;13.45;;;10.30;51.60;;;2.74;60.64;96175.78;5041889;28;20028;-56
2023/01/30 11:35:44;;;;;;;21.45;13.90;;;10.60;51.20;;;3.22;60.94;96183.47;5060756;28;20079;-53
2023/01/30 11:38:31;;;;;;;21.08;13.95;;;11.00;51.30;;;3.32;59.01;96189.16;5035616;28;20131;-52
2023/01/30 11:41:23;;;;;;;20.85;13.98;;;11.50;50.30;;;3.50;58.71;96192.97;5039993;28;20031;-52
2023/01/30 11:44:04;;;;;;;22.10;14.52;;;12.00;49.80;;;3.88;58.06;96169.38;5052131;28;20432;-54
2023/01/30 11:46:42;;;;;;;20.55;14.20;;;12.50;49.40;;;3.89;57.69;96149.91;5046137;28;20039;-56
2023/01/30 11:49:17;;;;;;;21.77;14.88;;;12.50;48.70;;;4.04;58.88;96147.84;5021631;28;24619;-55
2023/01/30 11:51:51;;;;;;;22.17;14.55;;;12.60;48.50;;;3.96;58.33;96147.25;5021479;28;20587;-54
2023/01/30 11:54:48;;;;;;;21.10;14.35;;;12.40;48.20;;;3.92;57.68;96131.84;5022766;28;20056;-52
2023/01/30 11:57:20;;;;;;;22.83;15.25;;;12.30;48.20;;;3.69;58.70;96139.44;5025592;28;20038;-52
2023/01/30 12:00:00;;;;;;;20.25;14.13;;;12.10;48.00;;;3.92;57.37;96133.69;5045571;28;20012;-51
2023/01/30 12:02:37;;;;;;;23.13;14.88;;;12.10;47.90;;;3.79;58.11;96150.38;5022306;28;20509;-53
2023/01/30 12:05:20;;;;;;;21.13;13.82;;;12.00;47.60;;;3.83;59.07;96143.66;5037769;28;20032;-56
2023/01/30 12:07:52;;;;;;;21.40;14.90;;;11.90;47.50;;;3.71;58.87;96137.41;5032217;28;20044;-57
2023/01/30 12:10:31;;;;;;;23.90;14.50;;;11.80;47.90;;;3.75;59.05;96138.59;5022362;28;20033;-57
2023/01/30 12:13:12;;;;;;;26.88;14.32;;;11.60;47.70;;;3.55;58.76;96127.31;5022065;28;20035;-57
2023/01/30 12:16:23;;;;;;;20.75;13.30;;;11.60;47.60;;;3.55;59.62;96128.13;5041737;28;20079;-56
2023/01/30 12:19:41;;;;;;;22.50;13.55;;;11.50;47.50;;;3.55;58.48;96136.03;5033325;28;20021;-58
2023/01/30 12:22:42;;;;;;;21.45;14.40;;;11.80;47.20;;;4.34;57.26;96124.34;5039551;28;20028;-58
2023/01/30 12:25:31;;;;;;;22.38;14.13;;;12.70;46.90;;;4.86;55.97;96117.09;5031860;28;20096;-58
2023/01/30 12:28:27;;;;;;;21.67;15.02;;;13.20;46.70;;;5.10;54.91;96107.53;5036779;28;20111;-56
2023/01/30 12:31:19;;;;;;;22.48;15.43;;;13.70;46.50;;;5.04;56.63;96121.59;5030880;28;20032;-57
2023/01/30 12:33:46;;;;;;;21.17;14.18;;;13.80;45.60;;;4.96;54.79;96127.16;5025351;28;20479;-59
2023/01/30 12:36:57;;;;;;;18.33;13.15;;;13.70;45.80;;;4.76;55.63;96129.13;5018882;28;20450;-56
2023/01/30 12:40:10;;;;;;;22.05;11.45;;;13.50;44.90;;;4.59;56.48;96127.03;5010579;28;20060;-58
2023/01/30 12:43:34;;;;;;;19.75;12.32;;;13.10;44.70;;;4.03;56.07;96116.41;5019390;28;20097;-59
2023/01/30 12:46:33;;;;;;;;;;;12.70;44.70;;;3.91;56.67;96111.78;5019581;28;20040;-58
2023/01/30 12:49:58;;;;;;;18.05;11.52;;;12.20;44.90;;;4.07;57.08;96107.84;5036420;28;19927;-56
2023/01/30 12:53:10;;;;;;;18.25;11.73;;;12.00;45.00;;;4.43;56.71;96103.81;5009080;28;20108;-59
2023/01/30 12:56:27;;;;;;;17.60;11.75;;;11.90;45.50;;;4.43;56.68;96108.28;5014204;28;20480;-59
2023/01/30 12:59:59;;;;;;;18.90;11.95;;;11.80;45.80;;;4.17;57.10;96120.59;5022797;28;20041;-58
2023/01/30 13:03:00;;;;;;;18.83;12.77;;;11.80;46.00;;;4.21;57.16;96128.88;4983622;28;20609;-59
2023/01/30 13:05:46;;;;;;;20.05;13.32;;;11.70;45.90;;;3.93;58.57;96119.47;4996660;28;20033;-55
2023/01/30 13:09:35;;;;;;;21.30;13.48;;;11.80;45.40;;;4.48;57.72;96114.53;5028674;28;20402;-57
2023/01/30 13:12:59;;;;;;;19.73;12.15;;;11.80;45.60;;;4.76;56.43;96118.59;4979207;28;20330;-59
2023/01/30 13:15:55;;;;;;;19.38;12.77;;;12.20;46.10;;;5.04;57.21;96110.25;4977917;28;20033;-59
2023/01/30 13:19:06;;;;;;;19.17;12.43;;;12.20;46.10;;;4.54;56.50;96095.19;5043059;28;20392;-58
2023/01/30 13:22:10;;;;;;;19.52;12.57;;;12.00;46.00;;;4.47;58.30;96102.34;5035623;28;20111;-57
2023/01/30 13:25:27;;;;;;;;;;;11.60;45.60;;;4.11;58.91;96101.16;5041501;28;20100;-54
2023/01/30 13:28:17;;;;;;;18.65;11.98;;;11.30;46.20;;;4.11;58.65;96095.88;5033276;28;19939;-54
2023/01/30 13:30:48;;;;;;;20.88;12.23;;;11.00;46.20;;;4.07;59.24;96086.75;5033240;28;20081;-55
2023/01/30 13:33:40;;;;;;;17.65;11.02;;;10.80;46.40;;;3.87;60.06;96093.97;5033729;28;20026;-53
2023/01/30 13:36:16;;;;;;;17.23;11.85;;;10.60;46.50;;;3.63;60.38;96092.84;5026532;28;20066;-55
2023/01/30 13:39:08;;;;;;;18.95;12.00;;;10.50;46.60;;;3.81;60.42;96098.25;5026947;28;20370;-55
2023/01/30 13:41:55;;;;;;;17.45;10.63;;;10.50;46.80;;;3.74;61.91;96094.03;5033240;28;20029;-54
2023/01/30 13:44:31;;;;;;;17.17;10.73;;;10.40;46.90;;;3.65;61.25;96093.44;5018199;28;20179;-58
2023/01/30 13:47:21;;;;;;;18.77;11.00;;;10.30;47.00;;;3.62;60.92;96104.41;5010876;28;20472;-58
2023/01/30 13:50:28;;;;;;;17.02;9.63;;;10.10;47.20;;;3.58;61.95;96103.19;5027171;28;20035;-56
2023/01/30 13:53:41;;;;;;;17.83;9.77;;;10.00;47.30;;;3.44;62.20;96094.50;5035047;28;20081;-54
2023/01/30 13:56:42;;;;;;;16.15;9.82;;;9.90;47.60;;;3.41;63.48;96090.47;5014529;28;20043;-56
2023/01/30 13:59:52;;;;;;;15.93;9.70;;;9.80;47.70;;;3.52;62.67;96096.94;5047768;28;20032;-58
2023/01/30 14:02:25;;;;;;;16.05;9.45;;;9.80;48.00;;;3.43;63.84;96098.97;5037420;28;20108;-57
2023/01/30 14:04:56;;;;;;;;;;;9.90;48.00;;;3.45;63.32;96096.94;5027793;28;20078;-55
2023/01/30 14:07:40;;;;;;;16.23;9.65;;;9.80;48.30;;;3.34;63.70;96099.41;5029177;28;19919;-55
2023/01/30 14:10:24;;;;;;;15.35;9.73;;;9.70;48.30;;;3.18;64.33;96105.91;5011402;28;20071;-56
2023/01/30 14:12:53;;;;;;;16.90;10.23;;;9.60;48.30;;;3.22;64.37;96093.94;5040344;22;20685;-56
2023/01/30 14:15:28;;;;;;;15.32;9.13;;;9.50;48.40;;;3.14;64.33;96097.63;4983411;28;20038;-51
2023/01/30 14:18:22;;;;;;;14.90;9.15;;;9.50;48.60;;;3.12;65.13;96102.28;4985911;28;20055;-48
2023/01/30 14:20:51;;;;;;;15.85;9.02;;;9.40;48.60;;;3.17;64.95;96104.31;4986569;28;20066;-49
2023/01/30 14:23:33;;;;;;;14.57;9.25;;;9.30;48.80;;;3.23;65.35;96104.28;4977623;28;20384;-54
2023/01/30 14:25:59;;;;;;;16.85;9.57;;;9.30;48.80;;;3.13;65.45;96106.50;4963664;28;20085;-55
2023/01/30 14:28:28;;;;;;;15.25;8.70;;;9.20;49.10;;;3.08;65.90;96111.59;4963515;28;20037;-52
2023/01/30 14:31:01;;;;;;;13.88;8.60;;;9.10;49.20;;;3.11;65.92;96111.19;4982743;28;20053;-53
2023/01/30 14:33:30;;;;;;;15.85;9.48;;;9.00;49.30;;;2.88;65.78;96103.72;4968548;28;20409;-52
2023/01/30 14:36:01;;;;;;;17.00;8.93;;;8.90;49.40;;;2.69;66.64;96105.31;4963613;28;20045;-54
2023/01/30 14:38:27;;;;;;;13.10;8.50;;;8.80;49.50;;;2.74;67.95;96120.53;4981495;28;20107;-49
2023/01/30 14:41:00;;;;;;;14.93;9.05;;;8.60;49.60;;;2.74;67.63;96107.38;4966697;28;20033;-49
2023/01/30 14:43:40;;;;;;;13.37;9.03;;;8.60;50.60;;;2.76;68.24;96116.69;4965949;28;20057;-48
2023/01/30 14:46:18;;;;;;;15.35;9.07;;;8.50;50.10;;;2.86;69.78;96118.09;4967228;28;20648;-48
2023/01/30 14:48:49;;;;;;;15.90;8.80;;;8.40;50.50;;;2.90;68.53;96122.75;4964822;28;20030;-49
2023/01/30 14:51:47;;;;;;;16.30;9.40;;;8.40;50.70;;;2.81;67.70;96108.16;4965773;28;20033;-58
2023/01/30 14:54:13;;;;;;;15.65;8.90;;;8.40;50.80;;;2.82;67.59;96116.88;4965371;28;20030;-53
2023/01/30 14:57:17;;;;;;;14.55;9.40;;;8.30;50.90;;;2.73;68.03;96117.09;4966726;28;20432;-52
2023/01/30 14:59:59;;;;;;;14.88;8.85;;;8.20;50.90;;;2.61;68.32;96113.44;4964167;28;20393;-50
2023/01/30 15:02:34;;;;;;;18.25;9.20;;;8.10;51.00;;;2.65;68.87;96113.84;4974111;28;20034;-49
2023/01/30 15:05:00;;;;;;;19.70;9.55;;;8.10;51.20;;;2.63;68.55;96124.53;4964338;28;20026;-51
2023/01/30 15:08:02;;;;;;;18.27;9.25;;;8.00;51.20;;;2.69;69.35;96125.56;4961208;28;20034;-49
2023/01/30 15:11:31;;;;;;;15.60;8.90;;;8.00;51.40;;;2.67;69.25;96146.03;4979202;28;20029;-49
2023/01/30 15:14:31;;;;;;;15.18;8.95;;;8.00;51.50;;;2.61;69.10;96141.56;4964401;28;20048;-51
2023/01/30 15:17:32;;;;;;;16.35;8.88;;;7.90;51.70;;;2.61;69.62;96152.88;4980749;28;20504;-51
2023/01/30 15:20:53;;;;;;;15.52;8.98;;;7.90;51.90;;;2.62;69.56;96151.88;4977771;28;20492;-50
2023/01/30 15:24:17;;;;;;;14.82;8.32;;;7.80;52.00;;;2.58;69.62;96157.75;4982057;28;20018;-57
2023/01/30 15:27:27;;;;;;;;;;;7.80;52.10;;;2.52;70.05;96160.16;4969701;28;20559;-50
2023/01/30 15:30:58;;;;;;;14.65;8.55;;;7.70;52.20;;;2.39;70.52;96159.31;4982861;28;20308;-52
2023/01/30 15:33:27;;;;;;;15.82;8.95;;;7.60;52.90;;;2.45;70.57;96161.16;4942811;28;20045;-53
2023/01/30 15:35:53;;;;;;;13.57;8.30;;;7.60;52.40;;;2.41;70.95;96170.44;4981782;28;20030;-51
2023/01/30 15:38:33;;;;;;;16.23;9.13;;;7.60;52.50;;;2.35;71.31;96166.81;4968853;28;20026;-53
2023/01/30 15:41:08;;;;;;;14.52;8.63;;;7.60;52.60;;;2.31;71.81;96178.72;4967479;28;20026;-51
2023/01/30 15:44:03;;;;;;;16.85;8.77;;;7.50;52.60;;;2.34;72.24;96174.88;4962664;28;20075;-53
2023/01/30 15:47:40;;;;;;;19.85;9.35;;;7.50;52.80;;;2.26;71.95;96191.66;4964133;28;20038;-50
2023/01/30 15:50:10;;;;;;;17.77;9.25;;;7.50;52.90;;;2.18;72.80;96181.31;4959515;28;20421;-53
2023/01/30 15:52:55;;;;;;;17.20;9.30;;;7.40;53.10;;;2.26;72.38;96187.19;4975723;28;20497;-49
2023/01/30 15:55:30;;;;;;;17.65;9.65;;;7.40;53.20;;;2.16;72.20;96191.19;4947874;28;20030;-51
2023/01/30 15:58:11;;;;;;;15.80;9.60;;;7.30;53.80;;;2.19;73.08;96191.59;4953566;28;20494;-52
2023/01/30 16:00:52;;;;;;;17.23;9.82;;;7.30;53.30;;;2.16;72.97;96194.63;4981866;28;20065;-54
2023/01/30 16:03:34;;;;;;;20.92;10.90;;;7.30;53.40;;;2.09;73.25;96191.97;4983219;28;20026;-47
2023/01/30 16:06:00;;;;;;;19.52;10.70;;;7.20;53.50;;;2.01;73.24;96201.88;4982210;28;20034;-51
2023/01/30 16:08:33;;;;;;;17.95;10.60;;;7.20;53.60;;;1.92;73.38;96205.66;4971630;28;20022;-52
2023/01/30 16:10:59;;;;;;;19.75;10.90;;;7.10;53.60;;;1.86;73.73;96209.88;4962671;28;20022;-49
2023/01/30 16:13:32;;;;;;;17.80;10.30;;;7.00;53.70;;;1.81;73.79;96209.63;4963456;28;20145;-52
2023/01/30 16:16:15;;;;;;;22.30;10.85;;;7.00;53.80;;;1.77;74.18;96216.28;4964059;28;20053;-49
2023/01/30 16:18:58;;;;;;;16.48;9.93;;;7.00;53.90;;;1.71;74.23;96220.50;4961992;28;20438;-52
2023/01/30 16:21:36;;;;;;;24.63;10.88;;;6.80;53.90;;;1.72;73.90;96229.97;4965046;28;20022;-50
2023/01/30 16:24:31;;;;;;;20.27;10.90;;;6.80;54.00;;;1.74;73.95;96235.06;4960544;28;20160;-50
2023/01/30 16:27:06;;;;;;;23.80;11.65;;;6.80;54.10;;;1.72;74.80;96242.31;4966956;28;20058;-48
2023/01/30 16:29:51;;;;;;;21.95;11.32;;;6.80;54.30;;;1.69;74.38;96250.56;4983795;28;20034;-53
2023/01/30 16:32:29;;;;;;;20.33;11.10;;;6.70;54.30;;;1.66;75.54;96257.06;4965327;28;20030;-51
2023/01/30 16:35:22;;;;;;;20.30;11.35;;;6.70;54.50;;;1.66;75.02;96248.34;4974114;28;20034;-57
2023/01/30 16:37:51;;;;;;;17.45;10.10;;;6.70;54.50;;;1.62;75.11;96263.66;4969548;28;20061;-51
2023/01/30 16:40:27;;;;;;;19.25;11.07;;;6.60;54.60;;;1.57;75.65;96268.69;4984788;28;20033;-51
2023/01/30 16:43:14;;;;;;;24.73;11.68;;;6.60;54.70;;;1.51;76.02;96269.47;4968017;28;20484;-48
2023/01/30 16:45:46;;;;;;;23.60;11.95;;;6.60;54.80;;;1.55;76.26;96278.56;4968430;28;20030;-49
2023/01/30 16:48:21;;;;;;;14.77;8.97;;;6.50;54.80;;;1.52;77.22;96281.56;4948747;28;20156;-47
2023/01/30 16:50:59;;;;;;;24.50;12.68;;;6.50;54.90;;;1.45;77.87;96276.28;4975598;28;20121;-48
2023/01/30 16:53:32;;;;;;;22.73;12.15;;;6.50;55.10;;;1.36;78.99;96285.28;4983280;28;20081;-51
2023/01/30 16:56:03;;;;;;;23.45;12.40;;;6.50;55.20;;;1.32;80.77;96287.50;4970239;28;20417;-52
2023/01/30 16:58:34;;;;;;;25.92;13.00;;;6.40;55.20;;;1.27;82.08;96291.69;4962920;28;20370;-49
2023/01/30 17:01:06;;;;;;;25.13;13.38;;;6.40;55.50;;;1.14;82.78;96298.41;4960499;28;20081;-49
2023/01/30 17:03:48;;;;;;;22.42;12.15;;;6.30;55.60;;;1.09;84.26;96307.84;4948651;28;20030;-55
2023/01/30 17:06:37;;;;;;;23.50;13.52;;;6.30;55.80;;;0.94;86.56;96313.19;4966403;28;20521;-50
2023/01/30 17:09:35;;;;;;;24.55;12.82;;;6.20;56.20;;;0.84;88.31;96310.81;4956099;28;20161;-48
2023/01/30 17:12:29;;;;;;;23.52;13.38;;;6.10;56.30;;;0.74;91.04;96312.13;4968061;28;20030;-48
2023/01/30 17:15:13;;;;;;;25.63;13.65;;;6.00;56.60;;;0.77;92.04;96309.16;4957386;28;20480;-50
2023/01/30 17:17:43;;;;;;;26.17;13.90;;;5.90;56.90;;;0.69;93.61;96328.44;4965833;28;20101;-50
2023/01/30 17:20:12;;;;;;;22.55;12.48;;;5.90;57.10;;;0.69;94.22;96331.88;4981107;28;20576;-52
2023/01/30 17:22:45;;;;;;;26.98;13.98;;;5.80;57.20;;;0.68;95.14;96340.72;4977169;28;20475;-49
2023/01/30 17:25:40;;;;;;;23.80;13.50;;;5.80;57.60;;;0.58;95.91;96347.25;4978375;28;20033;-47
2023/01/30 17:28:09;;;;;;;27.10;14.43;;;5.70;57.80;;;0.59;95.92;96346.25;4980101;28;20033;-50
2023/01/30 17:30:35;;;;;;;29.17;14.23;;;5.70;58.00;;;0.55;97.42;96358.09;4982103;28;20030;-50
2023/01/30 17:33:00;;;;;;;30.10;15.02;;;5.70;58.10;;;0.45;98.23;96359.19;4967555;28;20034;-52
2023/01/30 17:35:26;;;;;;;31.13;15.77;;;5.60;58.40;;;0.46;98.70;96368.69;4962982;28;20026;-53
2023/01/30 17:37:54;;;;;;;30.85;15.77;;;5.60;58.60;;;0.48;99.59;96378.19;4964439;28;20121;-49
2023/01/30 17:40:34;;;;;;;36.58;15.68;;;5.60;58.80;;;0.43;100.00;96381.34;4967189;28;20034;-48
2023/01/30 17:43:00;;;;;;;35.88;14.68;;;5.60;59.10;;;0.43;100.00;96376.09;4964931;28;20045;-53
2023/01/30 17:45:27;;;;;;;29.67;14.18;;;5.50;59.10;;;0.42;100.00;96375.28;4951199;28;20026;-49
2023/01/30 17:47:54;;;;;;;31.35;15.82;;;5.50;59.20;;;0.38;100.00;96381.09;4950930;28;20022;-53
2023/01/30 17:50:20;;;;;;;30.83;16.40;;;5.50;59.40;;;0.37;100.00;96380.25;4979754;28;20031;-52
2023/01/30 17:52:50;;;;;;;31.73;16.30;;;5.40;59.50;;;0.38;100.00;96396.81;4983366;28;20392;-49
2023/01/30 17:55:16;;;;;;;32.78;15.75;;;5.50;59.70;;;0.34;100.00;96393.72;4966706;28;20022;-47
2023/01/30 17:57:47;;;;;;;35.72;17.15;;;5.40;59.70;;;0.37;100.00;96400.41;4984545;28;20030;-50
2023/01/30 18:00:20;;;;;;;35.22;16.55;;;5.40;60.00;;;0.36;100.00;96388.31;4982017;28;20034;-55
2023/01/30 18:02:46;;;;;;;33.05;17.13;;;5.40;60.10;;;0.35;100.00;96389.31;4951115;28;20484;-48
2023/01/30 18:05:13;;;;;;;40.75;17.35;;;5.40;60.20;;;0.31;100.00;96395.88;4967506;28;20058;-48
2023/01/30 18:07:44;;;;;;;38.05;17.02;;;5.40;60.50;;;0.30;100.00;96389.84;4981435;28;20027;-49
2023/01/30 18:10:18;;;;;;;36.97;17.13;;;5.40;60.70;;;0.30;100.00;96400.31;4983601;28;20472;-49
2023/01/30 18:12:44;;;;;;;36.72;17.75;;;5.30;61.60;;;0.27;100.00;96397.25;4968577;28;20365;-53
2023/01/30 18:15:14;;;;;;;38.63;16.83;;;5.30;60.90;;;0.30;100.00;96400.31;4981681;28;20038;-48
2023/01/30 18:17:53;;;;;;;40.90;17.40;;;5.30;62.00;;;0.28;100.00;96398.88;4970570;28;20036;-48
2023/01/30 18:20:24;;;;;;;38.25;19.00;;;5.30;61.30;;;0.27;100.00;96400.69;4971668;28;20026;-48
2023/01/30 18:22:50;;;;;;;37.25;17.35;;;5.30;61.50;;;0.25;100.00;96389.56;4971898;28;20047;-48
2023/01/30 18:25:16;;;;;;;36.70;16.52;;;5.30;61.60;;;0.22;100.00;96400.41;4970515;28;20031;-49
2023/01/30 18:27:46;;;;;;;37.42;17.15;;;5.30;61.70;;;0.22;100.00;96401.22;4986660;28;20038;-51
2023/01/30 18:30:16;;;;;;;37.17;16.98;;;5.30;61.90;;;0.23;100.00;96404.66;4970494;28;20737;-49
2023/01/30 18:32:47;;;;;;;36.55;17.02;;;5.30;62.10;;;0.23;100.00;96402.84;4959419;28;20165;-57
2023/01/30 18:35:15;;;;;;;35.17;17.48;;;5.30;62.20;;;0.24;100.00;96393.19;4986474;28;20030;-48
2023/01/30 18:37:44;;;;;;;39.35;17.85;;;5.30;62.30;;;0.25;100.00;96404.47;4970808;28;20022;-50
2023/01/30 18:40:13;;;;;;;36.78;16.63;;;5.30;62.50;;;0.26;100.00;96409.53;4978163;28;20061;-49
2023/01/30 18:42:42;;;;;;;32.47;15.85;;;5.30;62.60;;;0.27;100.00;96410.34;4969478;28;20025;-47
2023/01/30 18:45:09;;;;;;;34.95;15.93;;;5.30;62.80;;;0.31;100.00;96409.00;4969280;28;20030;-48
2023/01/30 18:47:38;;;;;;;34.90;15.98;;;5.40;62.90;;;0.32;100.00;96416.69;4969863;28;20643;-57
2023/01/30 18:50:08;;;;;;;32.50;15.77;;;5.40;63.00;;;0.37;100.00;96408.28;4961286;28;20026;-48
2023/01/30 18:52:34;;;;;;;33.40;15.98;;;5.40;63.10;;;0.36;100.00;96399.59;4970080;28;20052;-50
2023/01/30 18:54:59;;;;;;;33.97;15.55;;;5.40;63.10;;;0.37;100.00;96401.22;4969040;28;20096;-53
2023/01/30 18:57:25;;;;;;;38.83;17.02;;;5.40;63.20;;;0.35;100.00;96405.84;4962945;28;20505;-47
2023/01/30 18:59:51;;;;;;;34.92;17.05;;;5.40;63.30;;;0.39;100.00;96401.84;4966867;28;20030;-52
2023/01/30 19:02:17;;;;;;;32.92;16.92;;;5.40;63.40;;;0.42;100.00;96414.59;4985434;28;20037;-49
2023/01/30 19:04:43;;;;;;;35.65;17.42;;;5.40;63.50;;;0.44;100.00;96401.34;4985905;28;20030;-55
2023/01/30 19:07:14;;;;;;;30.90;15.80;;;5.50;63.60;;;0.48;100.00;96407.84;4984591;28;20030;-47
2023/01/30 19:09:40;;;;;;;30.17;15.65;;;5.50;63.70;;;0.48;100.00;96410.47;4958225;28;20022;-48
2023/01/30 19:14:51;;;;;;;33.05;16.10;;;5.50;63.80;;;0.54;100.00;96409.72;4890176;28;21587;-47
2023/01/30 19:17:17;;;;;;;32.67;15.70;;;5.60;63.80;;;0.55;100.00;96411.34;4949317;28;20019;-54
2023/01/30 19:19:45;;;;;;;36.38;16.45;;;5.60;63.80;;;0.57;100.00;96413.81;4950720;28;20062;-50
2023/01/30 19:22:11;;;;;;;38.65;16.48;;;5.60;64.00;;;0.55;100.00;96421.03;4951622;28;20057;-48
2023/01/30 19:24:37;;;;;;;36.30;16.60;;;5.60;63.90;;;0.57;100.00;96417.25;4964875;28;20121;-52
2023/01/30 19:27:08;;;;;;;34.53;16.27;;;5.60;63.90;;;0.53;100.00;96428.25;4950424;28;20041;-48
2023/01/30 19:29:34;;;;;;;31.80;15.45;;;5.70;64.10;;;0.53;100.00;96428.25;4950210;28;20057;-47
2023/01/30 19:32:00;;;;;;;35.72;17.92;;;5.70;64.10;;;0.57;100.00;96429.53;4933884;28;20482;-50
2023/01/30 19:34:29;;;;;;;33.63;16.05;;;5.70;64.10;;;0.58;100.00;96429.34;4965942;28;20114;-49
2023/01/30 19:36:55;;;;;;;34.88;17.08;;;5.70;64.30;;;0.56;100.00;96420.84;4943154;28;20041;-55
2023/01/30 19:39:21;;;;;;;35.55;16.92;;;5.70;64.30;;;0.56;100.00;96420.03;4966056;28;20470;-48
2023/01/30 19:41:47;;;;;;;36.95;16.05;;;5.70;64.40;;;0.48;100.00;96420.94;4949076;28;20061;-54
2023/01/30 19:44:13;;;;;;;40.38;18.40;;;5.70;64.50;;;0.55;100.00;96427.09;4947239;28;20662;-54
2023/01/30 19:46:41;;;;;;;47.28;19.52;;;5.70;64.60;;;0.54;100.00;96420.22;4950727;28;20393;-52
2023/01/30 19:49:10;;;;;;;44.28;20.25;;;5.60;64.60;;;0.59;100.00;96422.28;4964987;28;20029;-47
2023/01/30 19:51:36;;;;;;;56.30;19.70;;;5.60;64.80;;;0.58;100.00;96415.41;4950042;28;20539;-53
2023/01/30 19:54:10;;;;;;;39.30;17.92;;;5.60;64.80;;;0.55;100.00;96424.47;4949221;28;20027;-49
2023/01/30 19:56:39;;;;;;;36.08;18.25;;;5.60;65.00;;;0.59;100.00;96422.28;4949776;28;20030;-52
2023/01/30 19:59:12;;;;;;;38.55;18.25;;;5.70;65.00;;;0.62;100.00;96420.09;4949777;28;20033;-48
2023/01/30 20:01:41;;;;;;;46.40;21.90;;;5.70;65.20;;;0.62;100.00;96422.72;4947642;28;20031;-49
2023/01/30 20:04:07;;;;;;;35.88;16.95;;;5.70;65.10;;;0.63;100.00;96416.50;4965180;28;20027;-48
2023/01/30 20:06:36;;;;;;;38.38;17.80;;;5.70;65.20;;;0.59;100.00;96423.09;4948305;28;20034;-56
2023/01/30 20:09:09;;;;;;;48.08;18.83;;;5.70;65.20;;;0.62;100.00;96441.09;4950479;28;20105;-51
2023/01/30 20:11:39;;;;;;;37.15;16.92;;;5.60;65.20;;;0.65;100.00;96437.28;4964351;28;20030;-51
2023/01/30 20:14:06;;;;;;;32.95;16.23;;;5.70;65.30;;;0.71;100.00;96446.25;4968134;23;20053;-50
2023/01/30 20:16:36;;;;;;;31.52;15.90;;;5.70;65.30;;;0.66;100.00;96447.63;4957466;28;20392;-52
2023/01/30 20:19:13;;;;;;;33.53;16.20;;;5.70;65.40;;;0.69;100.00;96452.50;4982950;28;20416;-50
2023/01/30 20:21:44;;;;;;;27.42;13.43;;;5.70;65.50;;;0.76;100.00;96455.22;4956039;28;20033;-52
2023/01/30 20:24:15;;;;;;;32.75;15.65;;;5.80;65.50;;;0.78;100.00;96463.69;4947003;28;20477;-51
2023/01/30 20:26:42;;;;;;;30.83;15.90;;;5.80;65.50;;;0.78;100.00;96460.25;4949019;28;20046;-51
2023/01/30 20:29:10;;;;;;;38.40;18.40;;;5.80;65.50;;;0.75;100.00;96460.63;4947744;28;20033;-50
2023/01/30 20:31:38;;;;;;;33.83;15.77;;;5.80;65.50;;;0.74;100.00;96462.44;4963349;28;20057;-50